createdAt,value
2018-04-18T00:00:59.208Z,65.30
2018-04-18T00:03:26.681Z,65.40
2018-04-18T00:05:54.118Z,65.70
2018-04-18T00:08:21.579Z,66.20
2018-04-18T00:10:49.824Z,66.30
2018-04-18T00:13:17.293Z,66.30
2018-04-18T00:15:44.751Z,66.20
2018-04-18T00:18:12.214Z,66.60
2018-04-18T00:20:40.433Z,67.50
2018-04-18T00:23:08.643Z,67.20
2018-04-18T00:25:36.105Z,67.20
2018-04-18T00:28:03.572Z,67.30
2018-04-18T00:30:31.029Z,67.20
2018-04-18T00:32:58.513Z,67.40
2018-04-18T00:35:26.728Z,68.40
2018-04-18T00:37:54.188Z,68.40
2018-04-18T00:40:21.658Z,69.00
2018-04-18T00:42:49.894Z,68.40
2018-04-18T00:45:17.352Z,68.20
2018-04-18T00:50:20.312Z,68.00
2018-04-18T00:52:47.769Z,67.80
2018-04-18T00:55:15.234Z,67.80
2018-04-18T00:57:42.691Z,68.10
2018-04-18T01:00:10.143Z,68.10
2018-04-18T01:02:37.603Z,68.00
2018-04-18T01:05:05.057Z,68.30
2018-04-18T01:07:32.516Z,69.30
2018-04-18T01:10:00.008Z,67.80
2018-04-18T01:12:27.463Z,68.50
2018-04-18T01:14:54.918Z,69.00
2018-04-18T01:17:22.359Z,68.90
2018-04-18T01:19:49.834Z,68.60
2018-04-18T01:22:17.275Z,68.80
2018-04-18T01:24:44.734Z,68.90
2018-04-18T01:27:12.182Z,69.30
2018-04-18T01:29:39.662Z,69.60
2018-04-18T01:32:07.094Z,70.30
2018-04-18T01:34:34.562Z,70.00
2018-04-18T01:37:02.017Z,70.00
2018-04-18T01:39:30.246Z,70.90
2018-04-18T01:41:57.699Z,70.70
2018-04-18T01:44:25.187Z,70.70
2018-04-18T01:46:52.653Z,70.40
2018-04-18T01:49:36.810Z,70.10
2018-04-18T01:52:04.253Z,70.30
2018-04-18T01:54:31.722Z,70.10
2018-04-18T01:56:59.231Z,70.50
2018-04-18T01:59:26.720Z,70.30
2018-04-18T02:01:54.953Z,70.40
2018-04-18T02:04:22.397Z,70.40
2018-04-18T02:06:49.874Z,70.70
2018-04-18T02:09:17.335Z,70.20
2018-04-18T02:11:44.778Z,70.50
2018-04-18T02:14:12.244Z,70.30
2018-04-18T02:16:39.708Z,70.60
2018-04-18T02:19:07.171Z,70.50
2018-04-18T02:21:34.620Z,70.50
2018-04-18T02:24:02.858Z,70.50
2018-04-18T02:26:30.314Z,70.50
2018-04-18T02:28:57.804Z,70.70
2018-04-18T02:31:25.241Z,70.90
2018-04-18T02:33:52.717Z,71.10
2018-04-18T02:36:20.173Z,70.90
2018-04-18T02:38:48.404Z,71.10
2018-04-18T02:41:15.875Z,71.10
2018-04-18T02:43:43.342Z,71.30
2018-04-18T02:46:10.818Z,72.00
2018-04-18T02:48:38.287Z,72.10
2018-04-18T02:51:05.746Z,72.70
2018-04-18T02:53:33.194Z,72.70
2018-04-18T02:56:01.423Z,72.50
2018-04-18T02:58:28.890Z,72.50
2018-04-18T03:00:57.116Z,73.20
2018-04-18T03:03:24.566Z,73.20
2018-04-18T03:05:52.037Z,72.80
2018-04-18T03:08:20.262Z,72.20
2018-04-18T03:10:47.743Z,72.10
2018-04-18T03:13:15.999Z,71.20
2018-04-18T03:15:44.215Z,71.00
2018-04-18T03:18:11.675Z,70.90
2018-04-18T03:20:39.128Z,71.00
2018-04-18T03:23:06.580Z,71.50
2018-04-18T03:25:34.041Z,71.30
2018-04-18T03:28:01.495Z,70.90
2018-04-18T03:30:28.957Z,70.80
2018-04-18T03:32:56.415Z,70.20
2018-04-18T03:35:23.874Z,70.20
2018-04-18T03:37:51.322Z,70.00
2018-04-18T03:40:18.779Z,70.10
2018-04-18T03:42:46.247Z,70.60
2018-04-18T03:45:13.702Z,70.60
2018-04-18T03:47:41.163Z,70.90
2018-04-18T03:50:08.623Z,71.80
2018-04-18T03:52:36.852Z,72.30
2018-04-18T03:55:04.339Z,72.30
2018-04-18T03:57:31.800Z,72.40
2018-04-18T03:59:59.863Z,72.50
2018-04-18T04:02:28.125Z,72.00
2018-04-18T04:04:56.348Z,72.00
2018-04-18T04:07:24.571Z,71.70
2018-04-18T04:09:52.041Z,71.70
2018-04-18T04:12:19.506Z,71.70
2018-04-18T04:14:47.034Z,71.60
2018-04-18T04:17:26.215Z,71.50
2018-04-18T04:20:05.563Z,71.90
2018-04-18T04:22:44.873Z,72.10
2018-04-18T04:25:12.325Z,72.50
2018-04-18T04:27:39.773Z,73.00
2018-04-18T04:30:07.242Z,72.60
2018-04-18T04:32:34.894Z,72.50
2018-04-18T04:35:02.354Z,72.50
2018-04-18T04:37:29.793Z,72.20
2018-04-18T04:39:58.098Z,71.90
2018-04-18T04:42:25.567Z,72.20
2018-04-18T04:44:53.083Z,72.60
2018-04-18T04:47:20.470Z,73.10
2018-04-18T04:49:48.707Z,74.00
2018-04-18T04:52:16.181Z,74.00
2018-04-18T04:54:44.407Z,74.30
2018-04-18T04:57:11.871Z,74.30
2018-04-18T04:59:39.370Z,74.80
2018-04-18T05:02:06.835Z,75.00
2018-04-18T05:04:34.289Z,75.10
2018-04-18T05:07:01.754Z,76.20
2018-04-18T05:09:29.371Z,76.20
2018-04-18T05:11:56.821Z,76.40
2018-04-18T05:14:24.299Z,75.20
2018-04-18T05:16:52.548Z,74.20
2018-04-18T05:19:20.766Z,74.50
2018-04-18T05:21:48.233Z,74.50
2018-04-18T05:24:15.698Z,74.70
2018-04-18T05:26:43.191Z,74.60
2018-04-18T05:29:10.645Z,74.60
2018-04-18T05:31:38.162Z,74.90
2018-04-18T05:34:05.624Z,74.70
2018-04-18T05:36:33.086Z,74.80
2018-04-18T05:39:00.583Z,74.70
2018-04-18T05:41:28.108Z,74.30
2018-04-18T05:43:55.597Z,73.80
2018-04-18T05:46:23.837Z,72.60
2018-04-18T05:48:51.329Z,72.50
2018-04-18T05:51:19.185Z,72.50
2018-04-18T05:53:46.632Z,71.90
2018-04-18T05:56:14.086Z,71.30
2018-04-18T05:58:41.948Z,70.50
2018-04-18T06:01:09.406Z,69.90
2018-04-18T06:03:36.854Z,68.90
2018-04-18T06:06:04.369Z,68.50
2018-04-18T06:08:31.869Z,67.30
2018-04-18T06:10:59.332Z,65.80
2018-04-18T06:13:26.791Z,65.10
2018-04-18T06:15:54.243Z,63.70
2018-04-18T06:18:21.703Z,61.90
2018-04-18T06:20:49.149Z,60.40
2018-04-18T06:23:16.607Z,59.20
2018-04-18T06:25:44.061Z,58.80
2018-04-18T06:28:12.280Z,56.80
2018-04-18T06:30:40.368Z,56.80
2018-04-18T06:33:07.837Z,56.20
2018-04-18T06:35:36.111Z,52.70
2018-04-18T06:38:03.601Z,52.70
2018-04-18T06:40:31.128Z,52.80
2018-04-18T06:42:58.591Z,52.00
2018-04-18T06:45:26.882Z,51.70
2018-04-18T06:47:54.335Z,50.60
2018-04-18T06:50:22.582Z,49.70
2018-04-18T06:52:50.044Z,49.80
2018-04-18T06:55:17.514Z,49.20
2018-04-18T06:57:44.985Z,48.10
2018-04-18T07:00:12.413Z,46.60
2018-04-18T07:02:39.874Z,46.00
2018-04-18T07:05:07.359Z,45.20
2018-04-18T07:07:35.636Z,44.80
2018-04-18T07:10:03.100Z,44.70
2018-04-18T07:12:31.007Z,43.90
2018-04-18T07:14:59.220Z,43.70
2018-04-18T07:17:26.701Z,43.70
2018-04-18T07:19:54.131Z,42.50
2018-04-18T07:22:21.603Z,41.30
2018-04-18T07:24:49.898Z,38.90
2018-04-18T07:27:17.352Z,38.80
2018-04-18T07:29:44.803Z,38.10
2018-04-18T07:32:12.278Z,38.80
2018-04-18T07:34:40.503Z,37.50
2018-04-18T07:37:07.965Z,37.30
2018-04-18T07:39:35.421Z,36.30
2018-04-18T07:42:02.883Z,36.50
2018-04-18T07:44:30.359Z,36.70
2018-04-18T07:46:57.827Z,36.40
2018-04-18T07:49:25.282Z,37.70
2018-04-18T07:51:52.788Z,37.90
2018-04-18T07:54:20.262Z,37.30
2018-04-18T07:56:47.717Z,36.70
2018-04-18T07:59:15.206Z,36.20
2018-04-18T08:01:42.656Z,36.00
2018-04-18T08:04:10.118Z,35.40
2018-04-18T08:06:37.664Z,35.60
2018-04-18T08:09:05.137Z,35.60
2018-04-18T08:11:32.586Z,33.90
2018-04-18T08:14:00.052Z,33.80
2018-04-18T08:16:27.510Z,34.90
2018-04-18T08:18:54.960Z,32.50
2018-04-18T08:21:22.416Z,33.10
2018-04-18T08:23:49.858Z,33.20
2018-04-18T08:26:17.334Z,33.00
2018-04-18T08:28:44.774Z,34.30
2018-04-18T08:31:12.239Z,35.20
2018-04-18T08:33:39.706Z,35.00
2018-04-18T08:36:07.170Z,35.10
2018-04-18T08:38:34.621Z,34.90
2018-04-18T08:41:02.079Z,35.40
2018-04-18T08:43:30.326Z,35.40
2018-04-18T08:45:57.800Z,35.40
2018-04-18T08:48:25.246Z,35.30
2018-04-18T08:50:52.723Z,35.30
2018-04-18T08:53:20.175Z,35.80
2018-04-18T08:55:47.619Z,36.10
2018-04-18T08:58:15.078Z,36.20
2018-04-18T09:00:42.588Z,33.30
2018-04-18T09:03:10.822Z,32.30
2018-04-18T09:05:38.285Z,32.20
2018-04-18T09:08:05.742Z,32.80
2018-04-18T09:10:33.180Z,33.60
2018-04-18T09:13:00.637Z,32.20
2018-04-18T09:15:28.098Z,33.00
2018-04-18T09:17:55.555Z,32.30
2018-04-18T09:20:23.843Z,31.70
2018-04-18T09:22:51.298Z,31.60
2018-04-18T09:25:18.751Z,32.20
2018-04-18T09:27:46.231Z,31.80
2018-04-18T09:30:13.743Z,30.80
2018-04-18T09:32:41.225Z,31.30
2018-04-18T09:35:08.683Z,31.20
2018-04-18T09:37:36.142Z,31.10
2018-04-18T09:40:04.408Z,29.30
2018-04-18T09:42:31.878Z,29.30
2018-04-18T09:44:59.815Z,29.60
2018-04-18T09:47:28.024Z,29.10
2018-04-18T09:49:55.532Z,28.50
2018-04-18T09:52:23.753Z,29.80
2018-04-18T09:54:52.015Z,29.90
2018-04-18T09:57:19.467Z,29.80
2018-04-18T09:59:46.944Z,29.40
2018-04-18T10:02:18.396Z,29.80
2018-04-18T10:04:46.431Z,29.50
2018-04-18T10:07:14.643Z,29.40
2018-04-18T10:09:42.905Z,29.30
2018-04-18T10:12:10.379Z,29.30
2018-04-18T10:14:37.900Z,28.30
2018-04-18T10:17:05.391Z,28.30
2018-04-18T10:19:32.857Z,28.70
2018-04-18T10:22:00.310Z,29.10
2018-04-18T10:24:27.763Z,29.40
2018-04-18T10:26:55.268Z,29.50
2018-04-18T10:29:23.485Z,29.50
2018-04-18T10:31:50.989Z,29.40
2018-04-18T10:34:18.469Z,28.70
2018-04-18T10:36:45.942Z,28.20
2018-04-18T10:39:14.626Z,28.40
2018-04-18T10:41:42.818Z,28.60
2018-04-18T10:44:10.275Z,28.50
2018-04-18T10:46:38.499Z,28.60
2018-04-18T10:49:05.992Z,28.60
2018-04-18T10:51:33.445Z,29.30
2018-04-18T10:54:00.947Z,28.80
2018-04-18T10:56:29.437Z,28.50
2018-04-18T10:58:56.898Z,29.00
2018-04-18T11:01:24.355Z,29.60
2018-04-18T11:03:52.586Z,30.00
2018-04-18T11:06:20.047Z,29.90
2018-04-18T11:08:47.506Z,27.80
2018-04-18T11:11:15.718Z,28.30
2018-04-18T11:13:43.189Z,28.30
2018-04-18T11:16:10.628Z,28.70
2018-04-18T11:18:38.107Z,26.60
2018-04-18T11:21:06.315Z,25.30
2018-04-18T11:23:33.818Z,25.70
2018-04-18T11:26:03.032Z,28.10
2018-04-18T11:28:30.523Z,28.10
2018-04-18T11:30:57.951Z,27.80
2018-04-18T11:33:25.442Z,26.30
2018-04-18T11:35:52.888Z,25.90
2018-04-18T11:38:20.351Z,27.60
2018-04-18T11:40:47.810Z,28.30
2018-04-18T11:43:15.278Z,28.80
2018-04-18T11:45:42.728Z,26.90
2018-04-18T11:48:10.183Z,25.30
2018-04-18T11:50:38.399Z,26.90
2018-04-18T11:53:06.614Z,27.40
2018-04-18T11:55:34.071Z,27.30
2018-04-18T11:58:01.555Z,26.90
2018-04-18T12:00:29.001Z,25.60
2018-04-18T12:02:56.514Z,26.10
2018-04-18T12:05:24.039Z,24.50
2018-04-18T12:07:51.542Z,27.00
2018-04-18T12:10:19.035Z,27.10
2018-04-18T12:12:46.489Z,26.60
2018-04-18T12:15:13.952Z,28.30
2018-04-18T12:17:41.408Z,28.20
2018-04-18T12:20:08.865Z,27.10
2018-04-18T12:22:36.302Z,26.10
2018-04-18T12:25:03.742Z,25.20
2018-04-18T12:27:31.201Z,24.70
2018-04-18T12:29:59.661Z,26.20
2018-04-18T12:32:27.903Z,25.10
2018-04-18T12:34:55.953Z,24.90
2018-04-18T12:37:23.407Z,24.60
2018-04-18T12:39:50.858Z,24.00
2018-04-18T12:42:18.369Z,24.50
2018-04-18T12:44:45.829Z,25.10
2018-04-18T12:47:13.295Z,25.30
2018-04-18T12:49:41.509Z,25.90
2018-04-18T12:52:08.950Z,25.90
2018-04-18T12:54:36.422Z,25.20
2018-04-18T12:57:03.862Z,24.60
2018-04-18T12:59:31.336Z,23.90
2018-04-18T13:01:59.562Z,23.10
2018-04-18T13:04:27.044Z,23.00
2018-04-18T13:06:55.272Z,23.00
2018-04-18T13:09:22.763Z,23.00
2018-04-18T13:11:50.209Z,23.10
2018-04-18T13:14:17.662Z,23.80
2018-04-18T13:16:45.099Z,23.00
2018-04-18T13:19:12.609Z,22.90
2018-04-18T13:21:40.064Z,20.50
2018-04-18T13:24:08.266Z,19.90
2018-04-18T13:26:35.729Z,19.90
2018-04-18T13:29:03.182Z,20.00
2018-04-18T13:31:30.629Z,20.40
2018-04-18T13:33:58.088Z,21.10
2018-04-18T13:36:25.572Z,21.90
2018-04-18T13:38:53.102Z,21.20
2018-04-18T13:41:20.557Z,20.20
2018-04-18T13:43:48.019Z,20.00
2018-04-18T13:46:15.477Z,19.60
2018-04-18T13:48:42.947Z,21.00
2018-04-18T13:51:10.392Z,21.60
2018-04-18T13:53:37.853Z,20.20
2018-04-18T13:56:05.346Z,20.60
2018-04-18T13:58:32.783Z,20.80
2018-04-18T14:01:00.230Z,19.50
2018-04-18T14:03:27.676Z,19.70
2018-04-18T14:05:55.137Z,21.90
2018-04-18T14:08:23.456Z,22.10
2018-04-18T14:10:50.916Z,22.60
2018-04-18T14:13:18.447Z,22.10
2018-04-18T14:15:45.878Z,22.10
2018-04-18T14:18:13.378Z,23.00
2018-04-18T14:20:40.833Z,23.30
2018-04-18T14:23:09.051Z,23.00
2018-04-18T14:25:36.571Z,23.00
2018-04-18T14:28:04.038Z,22.10
2018-04-18T14:30:31.519Z,22.50
2018-04-18T14:32:59.054Z,22.10
2018-04-18T14:35:26.503Z,22.20
2018-04-18T14:37:54.733Z,21.00
2018-04-18T14:40:22.205Z,21.00
2018-04-18T14:42:50.455Z,21.80
2018-04-18T14:45:17.911Z,21.70
2018-04-18T14:47:46.133Z,22.10
2018-04-18T14:50:13.602Z,22.00
2018-04-18T14:52:41.059Z,21.70
2018-04-18T14:55:09.267Z,20.10
2018-04-18T14:57:36.755Z,20.00
2018-04-18T15:00:04.204Z,19.90
2018-04-18T15:02:32.414Z,22.80
2018-04-18T15:04:59.858Z,22.80
2018-04-18T15:07:27.323Z,23.30
2018-04-18T15:09:54.783Z,23.40
2018-04-18T15:12:22.284Z,23.90
2018-04-18T15:14:49.740Z,24.30
2018-04-18T15:17:17.199Z,24.20
2018-04-18T15:19:44.657Z,24.10
2018-04-18T15:22:12.375Z,24.30
2018-04-18T15:24:39.831Z,24.10
2018-04-18T15:27:07.291Z,24.00
2018-04-18T15:29:34.742Z,23.80
2018-04-18T15:32:02.988Z,23.50
2018-04-18T15:34:30.439Z,23.50
2018-04-18T15:36:57.883Z,23.50
2018-04-18T15:39:25.343Z,23.70
2018-04-18T15:41:53.584Z,24.10
2018-04-18T15:44:21.055Z,24.00
2018-04-18T15:46:48.984Z,23.40
2018-04-18T15:49:16.418Z,23.70
2018-04-18T15:51:43.867Z,23.70
2018-04-18T15:54:11.324Z,23.90
2018-04-18T15:56:38.767Z,24.20
2018-04-18T15:59:06.222Z,23.60
2018-04-18T16:01:33.667Z,23.40
2018-04-18T16:04:01.124Z,23.00
2018-04-18T16:06:28.590Z,22.60
2018-04-18T16:08:56.045Z,22.90
2018-04-18T16:11:23.511Z,22.60
2018-04-18T16:13:50.967Z,22.50
2018-04-18T16:16:19.177Z,22.70
2018-04-18T16:18:46.614Z,22.70
2018-04-18T16:21:14.069Z,23.20
2018-04-18T16:23:41.505Z,23.50
2018-04-18T16:26:09.646Z,23.70
2018-04-18T16:28:37.142Z,23.80
2018-04-18T16:31:04.610Z,24.10
2018-04-18T16:33:32.073Z,24.70
2018-04-18T16:35:59.545Z,24.10
2018-04-18T16:38:27.071Z,23.70
2018-04-18T16:40:54.999Z,24.10
2018-04-18T16:43:22.454Z,23.80
2018-04-18T16:45:49.975Z,23.70
2018-04-18T16:48:17.438Z,23.50
2018-04-18T16:50:45.013Z,23.70
2018-04-18T16:53:12.458Z,24.20
2018-04-18T16:55:39.945Z,24.00
2018-04-18T16:58:07.397Z,24.10
2018-04-18T17:00:34.858Z,23.80
2018-04-18T17:03:02.336Z,23.90
2018-04-18T17:05:29.781Z,24.20
2018-04-18T17:07:57.238Z,24.60
2018-04-18T17:10:24.702Z,24.20
2018-04-18T17:12:52.151Z,24.20
2018-04-18T17:15:20.386Z,24.30
2018-04-18T17:17:47.843Z,24.30
2018-04-18T17:20:15.300Z,24.00
2018-04-18T17:22:43.514Z,24.30
2018-04-18T17:25:11.089Z,24.20
2018-04-18T17:27:38.541Z,24.20
2018-04-18T17:30:05.998Z,24.50
2018-04-18T17:32:33.461Z,24.50
2018-04-18T17:35:00.915Z,24.60
2018-04-18T17:37:28.375Z,24.60
2018-04-18T17:39:55.847Z,25.00
2018-04-18T17:42:23.284Z,25.20
2018-04-18T17:44:50.770Z,25.30
2018-04-18T17:47:19.206Z,25.40
2018-04-18T17:49:47.443Z,25.60
2018-04-18T17:52:15.064Z,25.60
2018-04-18T17:54:42.571Z,25.70
2018-04-18T17:57:10.813Z,26.10
2018-04-18T17:59:39.092Z,26.50
2018-04-18T18:02:06.561Z,26.20
2018-04-18T18:04:34.052Z,26.30
2018-04-18T18:07:01.533Z,26.50
2018-04-18T18:09:28.987Z,26.60
2018-04-18T18:11:56.430Z,26.80
2018-04-18T18:14:23.902Z,27.00
2018-04-18T18:16:51.381Z,27.40
2018-04-18T18:19:18.870Z,27.20
2018-04-18T18:21:46.325Z,27.30
2018-04-18T18:24:13.783Z,27.40
2018-04-18T18:26:41.270Z,27.60
2018-04-18T18:29:10.474Z,27.80
2018-04-18T18:31:37.999Z,27.70
2018-04-18T18:34:05.412Z,27.80
2018-04-18T18:36:32.862Z,28.30
2018-04-18T18:39:00.318Z,28.20
2018-04-18T18:41:28.556Z,28.40
2018-04-18T18:43:56.927Z,28.30
2018-04-18T18:46:24.405Z,28.20
2018-04-18T18:48:51.854Z,28.20
2018-04-18T18:51:19.334Z,28.30
2018-04-18T18:53:46.779Z,28.40
2018-04-18T18:56:14.234Z,28.60
2018-04-18T18:58:41.708Z,28.60
2018-04-18T19:01:09.919Z,28.60
2018-04-18T19:03:37.384Z,28.40
2018-04-18T19:06:04.862Z,28.80
2018-04-18T19:08:33.066Z,29.00
2018-04-18T19:11:00.531Z,29.00
2018-04-18T19:13:28.019Z,29.00
2018-04-18T19:15:55.463Z,29.20
2018-04-18T19:18:22.895Z,29.20
2018-04-18T19:20:50.346Z,29.40
2018-04-18T19:23:17.811Z,29.50
2018-04-18T19:25:45.313Z,29.50
2018-04-18T19:28:12.769Z,29.60
2018-04-18T19:30:40.239Z,29.70
2018-04-18T19:33:07.736Z,29.80
2018-04-18T19:35:35.203Z,29.90
2018-04-18T19:38:02.666Z,30.00
2018-04-18T19:40:30.368Z,29.90
2018-04-18T19:42:57.852Z,30.20
2018-04-18T19:45:25.340Z,30.30
2018-04-18T19:47:52.798Z,30.30
2018-04-18T19:50:20.243Z,30.30
2018-04-18T19:52:48.459Z,30.80
2018-04-18T19:55:15.947Z,30.70
2018-04-18T19:57:43.435Z,30.80
2018-04-18T20:00:10.890Z,30.90
2018-04-18T20:02:38.346Z,30.70
2018-04-18T20:05:05.853Z,30.80
2018-04-18T20:07:33.264Z,31.00
2018-04-18T20:10:00.708Z,31.20
2018-04-18T20:12:28.936Z,32.30
2018-04-18T20:14:56.417Z,31.60
2018-04-18T20:17:24.647Z,31.50
2018-04-18T20:19:52.098Z,31.50
2018-04-18T20:22:19.563Z,31.70
2018-04-18T20:24:47.789Z,32.00
2018-04-18T20:27:15.281Z,32.00
2018-04-18T20:29:42.747Z,32.00
2018-04-18T20:32:10.221Z,32.40
2018-04-18T20:34:37.650Z,32.50
2018-04-18T20:37:05.110Z,32.60
2018-04-18T20:39:32.580Z,32.70
2018-04-18T20:42:00.811Z,33.00
2018-04-18T20:44:28.286Z,33.00
2018-04-18T20:46:56.505Z,32.80
2018-04-18T20:49:24.747Z,33.30
2018-04-18T20:51:52.210Z,33.20
2018-04-18T20:54:19.678Z,33.20
2018-04-18T20:56:47.154Z,33.30
2018-04-18T20:59:14.618Z,33.70
2018-04-18T21:01:42.076Z,33.50
2018-04-18T21:04:09.532Z,33.60
2018-04-18T21:06:37.018Z,33.80
2018-04-18T21:09:05.372Z,33.90
2018-04-18T21:11:33.669Z,34.30
2018-04-18T21:14:01.057Z,34.30
2018-04-18T21:16:28.580Z,34.70
2018-04-18T21:18:56.043Z,34.90
2018-04-18T21:21:23.528Z,35.50
2018-04-18T21:23:50.985Z,35.20
2018-04-18T21:26:18.442Z,35.30
2018-04-18T21:28:45.920Z,35.40
2018-04-18T21:31:13.418Z,35.80
2018-04-18T21:33:40.874Z,35.60
2018-04-18T21:36:08.331Z,36.00
2018-04-18T21:38:35.806Z,35.60
2018-04-18T21:41:04.047Z,35.60
2018-04-18T21:43:31.530Z,35.60
2018-04-18T21:45:58.980Z,35.70
2018-04-18T21:48:26.441Z,35.60
2018-04-18T21:50:54.316Z,36.00
2018-04-18T21:53:21.764Z,36.00
2018-04-18T21:55:49.268Z,36.80
2018-04-18T21:58:16.723Z,36.50
2018-04-18T22:00:44.211Z,36.80
2018-04-18T22:03:11.672Z,37.00
2018-04-18T22:05:39.889Z,37.50
2018-04-18T22:08:08.137Z,37.40
2018-04-18T22:10:35.596Z,37.70
2018-04-18T22:13:03.112Z,38.00
2018-04-18T22:15:30.543Z,38.30
2018-04-18T22:17:57.996Z,38.20
2018-04-18T22:20:25.438Z,38.20
2018-04-18T22:22:52.898Z,38.40
2018-04-18T22:25:20.352Z,38.30
2018-04-18T22:27:47.813Z,38.90
2018-04-18T22:30:15.281Z,39.00
2018-04-18T22:32:43.484Z,39.20
2018-04-18T22:35:10.935Z,39.20
2018-04-18T22:37:38.396Z,39.30
2018-04-18T22:40:05.861Z,39.50
2018-04-18T22:42:34.092Z,39.50
2018-04-18T22:45:01.540Z,39.50
2018-04-18T22:47:28.993Z,39.90
2018-04-18T22:49:56.514Z,40.30
2018-04-18T22:52:23.935Z,40.40
2018-04-18T22:54:51.391Z,40.50
2018-04-18T22:57:18.867Z,40.60
2018-04-18T22:59:46.319Z,40.90
2018-04-18T23:02:13.762Z,40.90
2018-04-18T23:04:41.968Z,40.90
2018-04-18T23:07:09.434Z,40.90
2018-04-18T23:09:36.917Z,41.10
2018-04-18T23:12:05.146Z,41.40
2018-04-18T23:14:32.596Z,41.40
2018-04-18T23:17:00.123Z,41.40
2018-04-18T23:19:27.581Z,41.60
2018-04-18T23:21:55.025Z,41.70
2018-04-18T23:24:22.482Z,41.60
2018-04-18T23:26:49.945Z,41.70
2018-04-18T23:29:17.411Z,41.60
2018-04-18T23:31:44.857Z,41.70
2018-04-18T23:34:12.342Z,41.60
2018-04-18T23:36:39.813Z,41.60
2018-04-18T23:39:08.037Z,41.60
2018-04-18T23:41:35.505Z,41.60
2018-04-18T23:44:03.731Z,41.80
2018-04-18T23:46:31.185Z,41.80
2018-04-18T23:48:58.658Z,42.00
2018-04-18T23:51:26.082Z,41.80
2018-04-18T23:53:53.539Z,41.70
2018-04-18T23:56:21.000Z,41.80
2018-04-18T23:58:48.461Z,41.70
